Time;durP1;ratioP1;P1;durP2;ratioP2;P2;SDS_P1;SDS_P2;PMS_P1;PMS_P2;Temp;Humidity;BMP_temperature;BMP_pressure;BME280_temperature;BME280_humidity;BME280_pressure;Samples;Min_cycle;Max_cycle;Signal;HPM_P1;HPM_P2
2022/05/08 00:02:13;;;;;;;8.30;4.70;;;;;;;11.66;44.19;100156.31;5089048;28;20034;-90
2022/05/08 00:04:39;;;;;;;7.13;5.22;;;;;;;11.75;44.94;100175.66;5070799;28;20025;-91
2022/05/08 00:07:04;;;;;;;8.75;5.07;;;;;;;11.14;44.97;100080.09;5070895;28;20020;-90
2022/05/08 00:09:30;;;;;;;6.43;5.30;;;;;;;11.20;44.96;100081.25;5088873;28;20085;-91
2022/05/08 00:11:55;;;;;;;9.57;5.80;;;;;;;11.56;44.54;100129.25;5088875;28;20020;-90
2022/05/08 00:14:21;;;;;;;9.25;5.93;;;;;;;11.61;44.26;100148.06;5070768;28;20115;-91
2022/05/08 00:16:46;;;;;;;11.32;6.15;;;;;;;11.76;44.78;100170.19;5070536;28;20120;-90
2022/05/08 00:19:12;;;;;;;8.65;5.63;;;;;;;11.35;44.35;100113.13;5070372;28;20019;-90
2022/05/08 00:21:39;;;;;;;9.50;6.07;;;;;;;11.17;44.53;100117.78;5088392;28;20412;-91
2022/05/08 00:24:04;;;;;;;6.85;5.32;;;;;;;11.49;44.88;100175.88;5088546;28;20082;-91
2022/05/08 00:26:30;;;;;;;8.07;5.45;;;;;;;11.78;44.96;100215.84;5088253;28;20463;-90
2022/05/08 00:28:56;;;;;;;11.80;5.50;;;;;;;11.77;45.45;100221.28;5088349;28;20020;-90
2022/05/08 00:31:22;;;;;;;10.80;5.32;;;;;;;11.32;45.05;100147.81;5088491;28;20020;-90
2022/05/08 00:33:47;;;;;;;10.63;5.35;;;;;;;11.07;44.93;100102.91;5070427;28;20024;-91
2022/05/08 00:36:12;;;;;;;8.82;5.00;;;;;;;11.74;45.50;100229.53;5069999;28;20027;-91
2022/05/08 00:38:38;;;;;;;8.55;5.68;;;;;;;11.06;45.07;100103.06;5072921;28;20040;-91
2022/05/08 00:41:03;;;;;;;8.05;5.50;;;;;;;11.59;45.58;100207.44;5087184;28;20020;-91
2022/05/08 00:43:35;;;;;;;7.53;5.15;;;;;;;11.02;45.91;100131.63;5088046;28;20024;-91
2022/05/08 00:46:20;;;;;;;6.07;5.30;;;;;;;11.40;46.22;100211.25;5088203;28;20041;-91
2022/05/08 00:48:46;;;;;;;9.50;6.10;;;;;;;11.27;45.89;100185.31;5087654;28;20032;-91
2022/05/08 00:51:14;;;;;;;7.65;5.20;;;;;;;11.09;46.14;100174.91;5075965;28;20085;-90
2022/05/08 00:53:46;;;;;;;8.05;5.45;;;;;;;11.42;46.62;100214.56;5074800;28;20024;-91
2022/05/08 00:56:13;;;;;;;8.80;5.90;;;;;;;11.04;46.14;100147.31;5074674;28;20020;-90
2022/05/08 00:58:40;;;;;;;7.85;4.93;;;;;;;11.13;46.06;100154.25;5073224;28;20037;-91
2022/05/08 01:01:07;;;;;;;8.07;5.25;;;;;;;10.86;46.34;100114.97;5073096;28;20099;-91
2022/05/08 01:03:32;;;;;;;7.57;5.13;;;;;;;11.47;46.44;100206.94;5074482;28;20157;-91
2022/05/08 01:06:04;;;;;;;7.22;5.93;;;;;;;10.75;46.59;100090.53;5074398;28;20454;-91
2022/05/08 01:08:31;;;;;;;9.93;5.40;;;;;;;10.06;46.32;99993.28;5073380;28;20024;-91
2022/05/08 01:10:58;;;;;;;5.70;5.00;;;;;;;10.96;46.41;100128.84;5073042;28;20029;-91
2022/05/08 01:13:24;;;;;;;8.27;5.85;;;;;;;11.12;46.60;100165.81;5073074;28;20020;-90
2022/05/08 01:15:49;;;;;;;6.72;4.93;;;;;;;11.17;46.60;100183.84;5073963;28;20028;-91
2022/05/08 01:18:16;;;;;;;8.45;5.45;;;;;;;11.36;46.46;100207.28;5072892;28;20016;-91
2022/05/08 01:20:46;;;;;;;7.90;5.20;;;;;;;11.28;47.34;100205.50;5072958;28;20021;-91
2022/05/08 01:23:12;;;;;;;6.25;5.30;;;;;;;11.25;47.10;100202.34;5073007;28;20421;-91
2022/05/08 01:25:47;;;;;;;6.35;5.38;;;;;;;10.69;47.18;100120.25;5074318;28;20027;-91
2022/05/08 01:28:14;;;;;;;10.38;6.05;;;;;;;11.19;47.30;100195.91;5073859;28;20040;-91
2022/05/08 01:30:43;;;;;;;5.95;4.93;;;;;;;11.18;47.42;100196.91;5073705;28;20020;-91
2022/05/08 01:33:10;;;;;;;10.50;6.22;;;;;;;10.63;47.13;100122.72;5072496;28;20021;-91
2022/05/08 01:35:36;;;;;;;10.38;5.05;;;;;;;11.15;47.15;100215.72;5073899;28;20058;-91
2022/05/08 01:38:06;;;;;;;11.30;5.05;;;;;;;10.74;47.49;100132.97;5072457;28;20447;-91
2022/05/08 01:40:31;;;;;;;9.82;4.95;;;;;;;10.22;47.29;100058.47;5036427;28;20025;-91
2022/05/08 01:42:58;;;;;;;7.43;4.85;;;;;;;10.72;47.26;100159.53;5053956;28;20027;-91
2022/05/08 01:45:24;;;;;;;6.85;4.57;;;;;;;10.94;47.50;100202.97;5035967;28;20078;-91
2022/05/08 01:50:35;;;;;;;8.02;5.38;;;;;;;10.93;47.58;100233.03;5054326;28;20028;-91
2022/05/08 01:53:01;;;;;;;6.38;4.82;;;;;;;10.55;47.77;100147.31;5053607;28;20074;-91
2022/05/08 01:55:26;;;;;;;6.60;4.75;;;;;;;10.32;48.03;100119.84;5053555;28;20100;-91
2022/05/08 01:57:53;;;;;;;11.15;4.85;;;;;;;10.19;48.16;100092.09;5035671;28;20032;-91
2022/05/08 02:00:20;;;;;;;6.07;5.00;;;;;;;10.86;47.69;100205.63;5035473;28;20031;-91
2022/05/08 02:02:48;;;;;;;8.13;4.88;;;;;;;9.89;48.09;100053.13;5052670;28;20485;-91
2022/05/08 02:05:15;;;;;;;8.32;6.05;;;;;;;10.73;47.53;100203.47;5053326;28;20016;-91
2022/05/08 02:07:42;;;;;;;7.18;5.57;;;;;;;10.65;47.76;100176.22;5053167;28;20017;-91
2022/05/08 02:10:08;;;;;;;6.85;4.97;;;;;;;10.65;48.10;100176.22;5053244;28;20419;-91
2022/05/08 02:12:33;;;;;;;5.70;5.03;;;;;;;10.08;47.76;100065.19;5053108;28;20025;-90
2022/05/08 02:14:59;;;;;;;9.75;5.38;;;;;;;10.19;48.33;100110.56;5035048;28;20020;-91
2022/05/08 02:17:24;;;;;;;7.97;5.40;;;;;;;9.98;48.45;100081.16;5053165;28;20032;-91
2022/05/08 02:19:49;;;;;;;6.72;5.35;;;;;;;10.03;48.62;100073.59;5035264;28;20113;-91
2022/05/08 02:22:15;;;;;;;9.27;5.95;;;;;;;10.10;48.22;100087.78;5052799;28;20024;-91
2022/05/08 02:24:40;;;;;;;8.50;5.25;;;;;;;10.53;48.87;100151.09;5035042;28;20021;-91
2022/05/08 02:27:06;;;;;;;8.57;5.60;;;;;;;10.70;48.18;100174.72;5052903;28;20025;-91
2022/05/08 02:29:31;;;;;;;8.82;5.28;;;;;;;10.89;48.72;100225.59;5035036;28;20020;-91
2022/05/08 02:31:56;;;;;;;11.07;5.60;;;;;;;10.62;48.60;100165.97;5052841;28;20078;-91
2022/05/08 02:34:22;;;;;;;7.80;5.57;;;;;;;10.40;48.42;100136.56;5052591;28;20584;-91
2022/05/08 02:36:47;;;;;;;8.13;5.68;;;;;;;10.86;49.19;100213.53;5052698;28;20051;-90
2022/05/08 02:39:13;;;;;;;7.30;5.55;;;;;;;10.30;49.22;100125.31;5053926;28;20037;-91
2022/05/08 02:41:38;;;;;;;10.38;5.68;;;;;;;10.39;48.77;100137.53;5072665;28;20077;-91
2022/05/08 02:44:05;;;;;;;8.68;5.78;;;;;;;10.39;48.96;100134.06;5071540;28;20509;-91
2022/05/08 02:46:31;;;;;;;10.02;5.82;;;;;;;10.18;49.10;100116.00;5071153;28;20050;-92
2022/05/08 02:48:56;;;;;;;9.57;5.90;;;;;;;10.69;49.33;100199.50;5071096;28;20022;-92
2022/05/08 02:51:21;;;;;;;9.15;6.20;;;;;;;10.17;49.23;100119.63;5071156;28;20020;-91
2022/05/08 02:53:47;;;;;;;11.23;5.32;;;;;;;10.48;49.22;100173.53;5071449;28;20016;-91
2022/05/08 02:58:56;;;;;;;9.20;6.25;;;;;;;10.19;49.03;100123.75;5072735;28;20031;-91
2022/05/08 03:01:22;;;;;;;8.32;5.75;;;;;;;10.25;49.88;100147.88;5071433;28;20024;-91
2022/05/08 03:03:47;;;;;;;7.03;5.75;;;;;;;9.65;49.61;100074.09;5071383;28;20108;-91
2022/05/08 03:06:13;;;;;;;10.63;5.93;;;;;;;9.77;49.65;100099.22;5071212;28;20021;-91
2022/05/08 03:08:40;;;;;;;8.07;5.72;;;;;;;10.40;49.50;100204.34;5071814;28;20489;-91
2022/05/08 03:13:49;;;;;;;8.40;5.97;;;;;;;10.07;49.46;100163.78;5072415;28;20043;-91
2022/05/08 03:16:15;;;;;;;6.72;5.78;;;;;;;9.46;49.86;100062.00;5071335;28;20492;-91
2022/05/08 03:18:40;;;;;;;8.13;5.70;;;;;;;9.94;49.60;100160.78;5072368;28;20024;-91
2022/05/08 03:21:06;;;;;;;7.55;5.75;;;;;;;9.99;50.10;100163.75;5071267;28;20020;-91
2022/05/08 03:23:33;;;;;;;8.13;6.47;;;;;;;9.78;49.63;100133.34;5072588;28;20099;-92
2022/05/08 03:25:59;;;;;;;9.85;6.28;;;;;;;9.57;50.07;100102.09;5071048;28;20024;-91
2022/05/08 03:28:24;;;;;;;7.53;6.18;;;;;;;9.85;50.38;100167.84;5071453;28;20078;-92
2022/05/08 03:30:50;;;;;;;6.35;5.68;;;;;;;9.67;50.31;100132.81;5072604;28;20020;-92
2022/05/08 03:33:15;;;;;;;8.98;5.70;;;;;;;10.12;50.31;100217.75;5071212;28;20020;-91
2022/05/08 03:35:41;;;;;;;6.65;4.90;;;;;;;9.38;50.68;100148.94;5072433;28;20028;-91
2022/05/08 03:38:08;;;;;;;8.10;6.13;;;;;;;10.02;50.33;100218.84;5068690;28;20030;-92
2022/05/08 03:40:34;;;;;;;9.02;5.93;;;;;;;10.11;50.75;100225.81;5034510;28;20045;-92
2022/05/08 03:43:01;;;;;;;9.85;6.10;;;;;;;9.56;50.67;100141.78;5052345;28;20029;-92
2022/05/08 03:45:27;;;;;;;10.93;6.13;;;;;;;9.71;50.43;100163.16;5052325;28;20032;-92
2022/05/08 03:47:53;;;;;;;9.73;6.22;;;;;;;9.86;50.87;100194.03;5052089;28;20025;-92
2022/05/08 03:50:22;;;;;;;9.32;6.30;;;;;;;10.19;51.11;100245.16;5034457;28;20017;-92
2022/05/08 03:52:48;;;;;;;8.13;6.00;;;;;;;10.24;50.55;100238.59;5052350;28;20051;-91
2022/05/08 03:55:15;;;;;;;6.95;5.53;;;;;;;10.29;50.66;100237.13;5052149;28;20025;-92
2022/05/08 03:57:44;;;;;;;10.00;7.05;;;;;;;10.32;50.64;100242.09;5033733;28;20021;-92
2022/05/08 04:00:11;;;;;;;13.23;8.05;;;;;;;9.98;50.84;100189.31;5033580;28;20094;-91
2022/05/08 04:02:37;;;;;;;19.15;8.00;;;;;;;9.70;50.90;100128.03;5051885;28;20029;-91
2022/05/08 04:05:04;;;;;;;17.02;7.95;;;;;;;10.15;51.11;100191.03;5051716;28;20082;-91
2022/05/08 04:07:30;;;;;;;21.52;9.98;;;;;;;10.57;51.12;100250.13;5051243;28;20017;-91
2022/05/08 04:09:55;;;;;;;27.80;10.90;;;;;;;10.54;52.02;100246.00;5051552;28;20456;-91
2022/05/08 04:12:21;;;;;;;32.15;11.50;;;;;;;10.04;51.75;100162.31;5033460;28;20082;-92
2022/05/08 04:14:46;;;;;;;33.92;12.27;;;;;;;9.86;52.63;100162.41;5051098;28;20060;-91
2022/05/08 04:17:12;;;;;;;31.05;11.98;;;;;;;10.77;52.63;100254.97;5051241;28;20513;-91
2022/05/08 04:19:37;;;;;;;31.98;12.45;;;;;;;10.63;52.98;100236.28;5033614;28;20498;-92
2022/05/08 04:24:48;;;;;;;25.15;12.20;;;;;;;10.48;53.20;100188.56;5051678;28;20592;-91
2022/05/08 04:27:13;;;;;;;30.23;13.30;;;;;;;10.47;53.42;100160.50;5037019;28;20112;-91
2022/05/08 04:29:39;;;;;;;29.58;13.60;;;;;;;11.13;53.63;100260.78;5054949;28;20017;-91
2022/05/08 04:32:04;;;;;;;26.42;12.73;;;;;;;10.90;53.38;100212.22;5037296;28;20074;-91
2022/05/08 04:34:30;;;;;;;30.20;13.95;;;;;;;11.11;53.69;100227.59;5054903;28;20097;-91
2022/05/08 04:36:55;;;;;;;22.90;11.95;;;;;;;10.93;54.69;100176.72;5054830;28;20025;-91
2022/05/08 04:39:21;;;;;;;25.70;13.80;;;;;;;11.33;54.51;100261.34;5054629;28;20037;-91
2022/05/08 04:41:46;;;;;;;30.50;14.25;;;;;;;10.40;55.62;100106.66;5054836;28;20024;-90
2022/05/08 04:44:12;;;;;;;30.83;15.95;;;;;;;11.34;55.06;100270.91;5055013;28;20020;-91
2022/05/08 04:46:37;;;;;;;25.75;15.25;;;;;;;11.22;55.82;100234.41;5036642;28;20083;-91
2022/05/08 04:49:03;;;;;;;22.88;13.77;;;;;;;11.53;56.12;100258.34;5054565;28;20410;-91
2022/05/08 04:51:29;;;;;;;30.52;16.27;;;;;;;11.60;56.24;100259.34;5036882;28;20021;-91
2022/05/08 04:53:54;;;;;;;21.65;14.10;;;;;;;11.21;55.98;100183.34;5036553;28;20490;-91
2022/05/08 04:56:21;;;;;;;23.58;14.35;;;;;;;11.58;55.90;100245.44;5037083;28;20035;-91
2022/05/08 04:58:47;;;;;;;22.30;14.50;;;;;;;11.56;56.25;100244.78;5036626;28;20051;-91
2022/05/08 05:01:12;;;;;;;22.60;13.02;;;;;;;11.60;55.78;100243.47;5054453;28;20024;-91
2022/05/08 05:03:38;;;;;;;27.10;13.77;;;;;;;11.24;56.26;100169.81;5036291;28;20017;-91
2022/05/08 05:06:03;;;;;;;23.60;12.85;;;;;;;11.32;56.03;100167.16;5054442;28;20464;-91
2022/05/08 05:08:28;;;;;;;23.52;13.75;;;;;;;10.66;55.91;100088.91;5054507;28;20017;-91
2022/05/08 05:10:54;;;;;;;22.15;12.95;;;;;;;10.45;56.34;100026.03;5036354;28;20017;-90
2022/05/08 05:13:19;;;;;;;20.85;12.45;;;;;;;11.79;55.96;100237.84;5054211;28;20025;-90
2022/05/08 05:15:45;;;;;;;23.67;13.93;;;;;;;11.95;56.35;100261.66;5054124;28;20057;-91
2022/05/08 05:18:11;;;;;;;23.65;13.60;;;;;;;12.02;56.38;100265.25;5053966;28;20033;-90
2022/05/08 05:20:36;;;;;;;20.33;12.80;;;;;;;11.69;56.26;100205.41;5036109;28;20017;-91
2022/05/08 05:23:02;;;;;;;23.35;13.35;;;;;;;12.07;55.87;100259.47;5053686;28;20021;-91
2022/05/08 05:25:29;;;;;;;23.60;13.50;;;;;;;12.07;56.03;100273.53;5053476;28;20490;-90
2022/05/08 05:27:55;;;;;;;23.45;15.02;;;;;;;11.46;55.82;100168.28;5035937;28;20028;-91
2022/05/08 05:30:20;;;;;;;21.02;12.85;;;;;;;11.83;56.44;100225.09;5053820;28;20021;-91
2022/05/08 05:32:46;;;;;;;22.10;13.15;;;;;;;12.17;56.04;100286.56;5053620;28;20550;-91
2022/05/08 05:35:12;;;;;;;24.20;15.60;;;;;;;11.95;56.10;100243.13;5035769;28;20016;-91
2022/05/08 05:37:39;;;;;;;25.15;13.77;;;;;;;12.21;55.85;100276.44;5035746;28;20113;-91
2022/05/08 05:40:06;;;;;;;31.83;16.35;;;;;;;11.89;55.69;100176.78;5053581;28;20056;-90
2022/05/08 05:42:31;;;;;;;27.23;14.48;;;;;;;12.36;55.80;100258.84;5035986;28;20021;-90
2022/05/08 05:44:57;;;;;;;27.85;16.08;;;;;;;12.29;56.36;100253.41;5035787;28;20089;-90
2022/05/08 05:50:07;;;;;;;37.10;16.92;;;;;;;11.81;55.87;100158.28;5053702;28;20067;-90
2022/05/08 05:52:36;;;;;;;31.40;17.63;;;;;;;12.63;56.22;100276.97;5035598;28;20023;-90
2022/05/08 05:55:06;;;;;;;31.70;18.85;;;;;;;12.41;56.43;100246.75;5035564;28;20017;-90
2022/05/08 05:57:36;;;;;;;36.95;19.27;;;;;;;12.70;56.66;100324.78;5035485;28;20501;-90
2022/05/08 06:00:10;;;;;;;37.38;20.92;;;;;;;12.52;56.30;100253.47;5053093;28;20018;-90
2022/05/08 06:02:36;;;;;;;31.13;18.45;;;;;;;11.32;56.30;100060.59;5035652;28;20025;-90
2022/05/08 06:05:02;;;;;;;33.97;18.95;;;;;;;12.51;56.90;100257.13;5053151;28;20572;-90
2022/05/08 06:07:27;;;;;;;34.40;20.45;;;;;;;12.18;56.37;100205.31;5035255;28;20108;-90
2022/05/08 06:09:53;;;;;;;26.95;16.88;;;;;;;11.91;56.07;100138.59;5034761;28;20087;-90
2022/05/08 06:12:18;;;;;;;30.70;17.65;;;;;;;12.60;56.51;100240.19;5052788;28;20104;-90
2022/05/08 06:14:46;;;;;;;32.13;18.50;;;;;;;12.22;57.01;100206.63;5035134;28;20401;-90
2022/05/08 06:17:12;;;;;;;32.08;17.77;;;;;;;12.34;56.86;100235.19;5035254;28;20108;-90
2022/05/08 06:19:38;;;;;;;29.08;17.77;;;;;;;10.31;56.61;99905.25;5034898;28;20021;-90
2022/05/08 06:22:03;;;;;;;34.50;18.70;;;;;;;12.00;57.08;100166.69;5052751;28;20086;-90
2022/05/08 06:24:29;;;;;;;28.27;17.58;;;;;;;12.51;56.83;100221.88;5052802;28;20025;-90
2022/05/08 06:26:54;;;;;;;30.13;17.90;;;;;;;12.19;56.52;100157.50;5052726;28;20024;-90
2022/05/08 06:29:20;;;;;;;28.60;19.42;;;;;;;12.78;56.26;100249.72;5034735;28;20112;-91
2022/05/08 06:31:46;;;;;;;29.60;19.17;;;;;;;12.78;55.97;100249.72;5034569;28;20031;-90
2022/05/08 06:34:12;;;;;;;29.45;19.50;;;;;;;12.84;56.55;100272.88;5034589;28;20025;-90
2022/05/08 06:36:38;;;;;;;28.77;17.38;;;;;;;12.98;56.39;100269.47;5034652;28;20094;-90
2022/05/08 06:39:03;;;;;;;26.13;18.42;;;;;;;12.79;56.23;100235.47;5052089;28;20522;-90
2022/05/08 06:41:29;;;;;;;27.83;17.10;;;;;;;12.58;56.12;100191.84;5034477;28;20025;-90
2022/05/08 06:43:55;;;;;;;25.77;17.77;;;;;;;12.79;55.76;100190.44;5052329;28;20536;-90
2022/05/08 06:46:20;;;;;;;24.77;17.45;;;;;;;12.71;55.58;100167.47;5052311;28;20045;-90
2022/05/08 06:48:47;;;;;;;25.60;16.92;;;;;;;13.19;55.22;100242.34;5051332;28;20448;-90
2022/05/08 06:51:13;;;;;;;28.40;18.75;;;;;;;13.51;55.32;100278.41;5034291;28;20029;-90
2022/05/08 06:53:40;;;;;;;28.63;17.88;;;;;;;13.16;55.39;100222.28;5051988;28;20032;-90
2022/05/08 06:56:05;;;;;;;25.23;17.88;;;;;;;13.49;55.01;100259.19;5034188;28;20033;-90
2022/05/08 07:01:34;;;;;;;26.48;18.17;;;;;;;13.25;55.01;100192.06;5034006;28;20543;-90
2022/05/08 07:01:34;;;;;;;23.85;16.45;;;;;;;13.60;54.67;100234.88;5051694;28;20040;-90
2022/05/08 07:04:00;;;;;;;24.77;16.83;;;;;;;13.63;54.45;100242.50;5052002;28;20021;-89
2022/05/08 07:06:26;;;;;;;25.85;16.85;;;;;;;13.67;54.69;100246.44;5051948;28;20090;-90
2022/05/08 07:08:51;;;;;;;25.13;17.05;;;;;;;13.62;54.59;100225.75;5051817;28;20021;-89
2022/05/08 07:11:17;;;;;;;22.33;16.23;;;;;;;13.72;54.36;100227.31;5033999;28;20501;-90
2022/05/08 07:13:42;;;;;;;27.70;17.55;;;;;;;13.01;54.33;100113.56;5033738;28;20032;-90
2022/05/08 07:16:07;;;;;;;24.90;14.75;;;;;;;13.17;54.34;100136.47;5033775;28;20035;-89
2022/05/08 07:18:33;;;;;;;25.80;16.38;;;;;;;13.76;54.42;100229.41;5033744;28;20036;-90
2022/05/08 07:20:58;;;;;;;20.45;14.68;;;;;;;13.11;54.76;100117.78;5051616;28;21065;-90
2022/05/08 07:23:24;;;;;;;22.38;14.05;;;;;;;13.29;54.55;100134.19;5051719;28;20121;-90
2022/05/08 07:25:49;;;;;;;26.00;16.55;;;;;;;13.78;54.48;100211.47;5033674;28;20493;-90
2022/05/08 07:28:14;;;;;;;17.58;12.77;;;;;;;13.25;54.71;100154.94;5033844;28;20020;-90
2022/05/08 07:30:40;;;;;;;20.08;14.48;;;;;;;13.88;54.22;100220.00;5033578;28;20017;-89
2022/05/08 07:33:05;;;;;;;17.25;13.20;;;;;;;13.86;53.79;100211.38;5033755;28;20497;-90
2022/05/08 07:38:17;;;;;;;15.07;11.40;;;;;;;14.49;52.70;100262.31;5051624;28;20457;-89
2022/05/08 07:40:47;;;;;;;16.30;10.93;;;;;;;13.93;52.03;100156.56;5033806;28;20029;-89
2022/05/08 07:43:13;;;;;;;15.48;10.57;;;;;;;14.30;51.51;100197.28;5051266;28;20024;-89
2022/05/08 07:45:38;;;;;;;16.13;10.57;;;;;;;14.46;51.49;100201.59;5033609;28;20025;-89
2022/05/08 07:48:04;;;;;;;15.15;10.60;;;;;;;14.51;51.49;100199.19;5033405;28;20022;-89
2022/05/08 07:50:30;;;;;;;20.98;11.32;;;;;;;14.66;50.99;100201.81;5033445;28;20383;-90
2022/05/08 07:52:55;;;;;;;17.67;11.05;;;;;;;14.83;50.34;100205.88;5033404;28;20027;-89
2022/05/08 07:55:21;;;;;;;17.33;10.48;;;;;;;14.92;50.00;100215.41;5033364;28;20106;-89
2022/05/08 07:57:46;;;;;;;12.40;8.27;;;;;;;14.48;49.09;100126.00;5033801;28;20082;-89
2022/05/08 08:00:12;;;;;;;13.77;8.52;;;;;;;15.40;48.52;100244.88;5052750;28;20013;-89
2022/05/08 08:02:37;;;;;;;15.60;9.88;;;;;;;15.46;48.40;100226.28;5037970;28;20117;-89
2022/05/08 08:05:03;;;;;;;13.02;9.88;;;;;;;15.61;48.01;100218.28;5037880;28;20479;-88
2022/05/08 08:07:29;;;;;;;20.80;9.60;;;;;;;15.03;47.27;100121.81;5055775;28;20052;-89
2022/05/08 08:09:54;;;;;;;12.48;9.90;;;;;;;15.47;47.14;100195.19;5055441;28;20048;-89
2022/05/08 08:12:19;;;;;;;13.35;9.80;;;;;;;16.03;47.17;100222.63;5037372;28;20029;-88
2022/05/08 08:14:45;;;;;;;12.15;8.90;;;;;;;16.17;46.65;100221.69;5037595;28;20020;-88
2022/05/08 08:17:10;;;;;;;11.70;9.27;;;;;;;16.36;46.02;100224.66;5055322;28;20520;-89
2022/05/08 08:19:36;;;;;;;14.25;9.77;;;;;;;16.07;45.73;100137.81;5037143;28;20486;-88
2022/05/08 08:22:01;;;;;;;13.23;10.07;;;;;;;16.11;45.57;100136.41;5036981;28;20422;-89
2022/05/08 08:24:27;;;;;;;12.32;9.55;;;;;;;16.33;45.12;100135.25;5054979;28;20096;-89
2022/05/08 08:26:52;;;;;;;16.80;11.35;;;;;;;16.84;45.08;100190.78;5037165;28;20101;-88
2022/05/08 08:29:18;;;;;;;14.45;10.90;;;;;;;17.02;44.55;100198.19;5055021;28;20017;-89
2022/05/08 08:31:43;;;;;;;19.00;14.15;;;;;;;16.89;44.45;100132.31;5037046;28;20021;-89
2022/05/08 08:34:08;;;;;;;18.80;12.30;;;;;;;17.01;44.05;100135.19;5037195;28;20040;-88
2022/05/08 08:36:35;;;;;;;18.05;13.23;;;;;;;17.64;43.64;100216.47;5036955;28;20104;-88
2022/05/08 08:39:01;;;;;;;23.38;15.38;;;;;;;17.09;43.08;100105.63;5052909;28;20036;-88
2022/05/08 08:41:31;;;;;;;18.83;12.73;;;;;;;17.75;42.52;100202.53;5074343;28;20032;-88
2022/05/08 08:49:37;;;;;;;21.20;14.38;;;;;;;18.24;41.48;100189.66;5074479;28;20028;-89
2022/05/08 08:52:03;;;;;;;23.55;17.05;;;;;;;17.91;41.08;100088.25;5074361;28;20021;-88
2022/05/08 08:54:28;;;;;;;21.85;17.38;;;;;;;18.52;40.50;100167.91;5073191;28;20029;-88
2022/05/08 08:56:54;;;;;;;27.55;18.80;;;;;;;18.61;40.16;100164.84;5090635;28;20029;-87
2022/05/08 08:59:21;;;;;;;20.00;15.95;;;;;;;18.65;39.80;100143.84;5096999;28;20021;-86
2022/05/08 09:01:46;;;;;;;21.38;16.50;;;;;;;18.61;39.25;100124.72;5097355;28;20004;-84
2022/05/08 09:04:13;;;;;;;19.75;14.43;;;;;;;18.66;38.71;100100.00;5096838;28;20015;-85
2022/05/08 09:06:42;;;;;;;19.60;13.15;;;;;;;19.63;38.18;100205.69;5096196;28;20022;-85
2022/05/08 09:09:24;;;;;;;17.60;11.10;;;;;;;19.72;37.03;100177.56;5076371;28;20479;-87
2022/05/08 09:11:53;;;;;;;15.90;11.18;;;;;;;19.75;35.84;100146.84;5073701;28;20493;-86
2022/05/08 09:14:33;;;;;;;13.57;8.43;;;;;;;20.35;34.91;100204.09;5074419;28;20520;-87
2022/05/08 09:17:00;;;;;;;16.00;10.38;;;;;;;20.42;35.34;100175.34;5074317;28;20031;-87
2022/05/08 09:19:37;;;;;;;13.90;11.43;;;;;;;20.20;35.31;100118.66;5072923;28;20086;-87
2022/05/08 09:22:05;;;;;;;14.90;9.93;;;;;;;20.86;35.00;100197.47;5074397;28;20027;-86
2022/05/08 09:24:30;;;;;;;12.65;8.32;;;;;;;20.83;34.79;100184.50;5074586;28;20058;-87
2022/05/08 09:27:16;;;;;;;13.98;9.18;;;;;;;21.12;35.09;100191.69;5074720;28;20024;-87
2022/05/08 09:29:42;;;;;;;12.13;7.93;;;;;;;20.60;34.95;100075.22;5072902;28;20048;-86
2022/05/08 09:32:08;;;;;;;13.85;9.52;;;;;;;21.61;34.90;100186.16;5074258;28;20024;-87
2022/05/08 09:34:57;;;;;;;9.73;7.28;;;;;;;21.84;34.46;100191.50;5073806;28;20020;-87
2022/05/08 09:37:27;;;;;;;13.35;7.40;;;;;;;21.32;34.18;100109.97;5072282;28;20070;-86
2022/05/08 09:40:18;;;;;;;9.85;5.80;;;;;;;21.70;33.56;100133.69;5072134;28;20410;-86
2022/05/08 09:42:45;;;;;;;10.80;6.65;;;;;;;21.88;33.19;100142.41;5073870;28;20020;-86
2022/05/08 09:45:11;;;;;;;7.38;5.60;;;;;;;22.20;32.71;100150.06;5074067;28;20051;-86
2022/05/08 09:47:57;;;;;;;9.95;5.70;;;;;;;22.32;30.83;100115.91;5073417;28;20048;-86
2022/05/08 09:50:22;;;;;;;7.43;5.00;;;;;;;22.20;31.56;100104.34;5073551;28;20095;-86
2022/05/08 09:52:48;;;;;;;6.80;4.93;;;;;;;22.41;31.37;100097.50;5073435;28;20056;-86
2022/05/08 09:55:16;;;;;;;4.90;4.00;;;;;;;22.36;30.71;100048.97;5070670;28;20052;-88
2022/05/08 09:57:41;;;;;;;6.50;5.53;;;;;;;23.22;30.52;100170.78;5071869;28;20413;-86
2022/05/08 10:00:09;;;;;;;6.13;4.85;;;;;;;23.38;30.41;100162.69;5071754;28;20028;-86
2022/05/08 10:02:35;;;;;;;9.63;5.55;;;;;;;23.35;30.49;100141.63;5073038;28;20017;-86
2022/05/08 10:05:01;;;;;;;5.78;4.75;;;;;;;23.61;30.40;100142.81;5071921;28;20089;-86
2022/05/08 10:07:27;;;;;;;6.70;4.93;;;;;;;23.75;30.15;100143.28;5073555;28;20028;-86
2022/05/08 10:15:32;;;;;;;6.47;4.43;;;;;;;24.16;29.66;100138.41;5072756;28;20104;-86
2022/05/08 10:18:16;;;;;;;7.07;3.70;;;;;;;24.23;28.66;100137.13;5072508;28;20032;-85
2022/05/08 10:21:07;;;;;;;6.43;3.90;;;;;;;24.42;28.73;100136.81;5071262;28;20041;-86
2022/05/08 10:23:38;;;;;;;6.65;4.25;;;;;;;24.61;28.41;100135.44;5071609;28;20078;-86
2022/05/08 10:26:18;;;;;;;7.03;4.78;;;;;;;24.82;28.27;100125.63;5072664;28;20036;-86
2022/05/08 10:29:11;;;;;;;5.45;4.95;;;;;;;24.77;27.39;100082.38;5072848;28;20044;-86
2022/05/08 10:31:48;;;;;;;5.60;3.53;;;;;;;24.90;27.17;100057.59;5072608;28;20029;-86
2022/05/08 10:34:14;;;;;;;4.65;3.42;;;;;;;24.51;26.52;100028.13;5072577;28;20098;-86
2022/05/08 10:37:11;;;;;;;3.50;2.88;;;;;;;25.22;26.17;100117.03;5072126;28;20501;-86
2022/05/08 10:39:41;;;;;;;9.80;8.13;;;;;;;24.97;26.48;100053.63;5070861;28;20538;-85
2022/05/08 10:42:39;;;;;;;4.53;3.45;;;;;;;25.47;26.35;100116.41;5071997;28;20020;-85
2022/05/08 10:45:05;;;;;;;4.57;2.90;;;;;;;25.52;25.74;100111.03;5072117;28;20500;-85
2022/05/08 10:47:33;;;;;;;4.47;2.88;;;;;;;25.70;25.94;100105.19;5072070;28;20024;-86
2022/05/08 10:50:10;;;;;;;4.15;3.00;;;;;;;25.61;25.45;100101.31;5072065;28;20099;-86
2022/05/08 10:52:43;;;;;;;3.50;2.83;;;;;;;25.29;25.49;100042.78;5072051;28;20031;-85
2022/05/08 10:55:17;;;;;;;7.95;5.65;;;;;;;25.55;25.24;100099.69;5070798;28;20477;-86
2022/05/08 10:57:45;;;;;;;7.60;2.47;;;;;;;25.78;24.49;100109.28;5070663;28;20029;-86
2022/05/08 11:00:12;;;;;;;10.95;4.22;;;;;;;25.98;24.19;100085.81;5071632;28;20044;-85
2022/05/08 11:02:59;;;;;;;5.53;4.22;;;;;;;26.09;24.25;100054.22;5070638;28;20032;-88
2022/05/08 11:05:36;;;;;;;6.03;3.83;;;;;;;26.29;24.38;100078.59;5070153;28;20029;-86
2022/05/08 11:08:04;;;;;;;6.97;3.25;;;;;;;26.52;24.04;100069.19;5070637;28;20024;-86
2022/05/08 11:10:31;;;;;;;6.97;3.35;;;;;;;26.62;23.67;100062.13;5070395;28;20027;-86
2022/05/08 11:13:10;;;;;;;5.00;3.10;;;;;;;26.14;23.77;99986.56;5070257;28;20028;-86
2022/05/08 11:15:49;;;;;;;3.40;2.55;;;;;;;26.74;23.66;100070.81;5070450;28;20119;-86
2022/05/08 11:18:24;;;;;;;5.45;2.60;;;;;;;26.83;23.58;100061.06;5070506;28;20083;-86
2022/05/08 11:20:57;;;;;;;5.60;2.53;;;;;;;26.68;23.23;100061.88;5071551;28;20052;-86
2022/05/08 11:23:24;;;;;;;4.85;2.72;;;;;;;26.46;22.74;100051.31;5070281;28;20427;-86
2022/05/08 11:25:52;;;;;;;3.38;2.30;;;;;;;26.59;22.61;100044.53;5071473;28;20036;-86
2022/05/08 11:28:20;;;;;;;2.88;2.47;;;;;;;26.71;22.79;100058.59;5071432;28;20056;-86
2022/05/08 11:30:50;;;;;;;3.95;2.72;;;;;;;26.65;22.77;100059.69;5071837;28;20025;-86
2022/05/08 11:36:06;;;;;;;7.10;3.40;;;;;;;26.50;23.46;99998.22;5071421;28;20035;-86
2022/05/08 11:38:42;;;;;;;;;;;;;;;26.70;24.05;100048.84;5070174;28;20060;-85
2022/05/08 11:41:12;;;;;;;8.15;4.75;;;;;;;26.76;24.42;100057.81;5071729;28;19919;-86
2022/05/08 11:43:39;;;;;;;6.38;3.58;;;;;;;26.80;24.24;100050.78;5070334;28;20607;-86
2022/05/08 11:46:05;;;;;;;4.68;3.30;;;;;;;26.71;24.14;100017.16;5071384;28;20024;-85
2022/05/08 11:48:40;;;;;;;4.72;3.33;;;;;;;26.71;24.07;99987.38;5071334;28;20089;-86
2022/05/08 11:51:07;;;;;;;5.25;3.42;;;;;;;26.84;24.43;99990.34;5070143;28;20082;-86
2022/05/08 11:53:45;;;;;;;5.57;3.90;;;;;;;26.86;24.16;99987.38;5070201;28;20028;-85